LFRM 181530Z AUTO VRB07KT CAVOK 28/13 Q1015 TEMPO BKN025TCU

ElémentsDécodage
LFRM Station météo située sur l'aérodrome de LE-MANS Arnage
181530Z émis le 18 du mois à 15h30 UTC
AUTO Bulletin édité par un automate
VRB07KT vent de direction variable, 07 noeuds
CAVOK Ceiling And Visibility OK
- Visibilité de 10 Km ou plus
- Pas de nuage au-dessous de 1500m ou au-dessous de l'altitude minimale du secteur la plus élevée (si>1500m) et absence de CB
- pas de temps présent significatif
28/13 température 28°C, point de rosée 13°C
 soit une humidité relative de 40%
Q1015 la pression au niveau de la mer (QNH) est de 1015 hPa
TEMPO fluctuation temporaire prévue
BKN025TCU nuages morcelés (5/8 à 7/8) à 2500 pieds
 présence de cumulus congestus